Rio Tercero, Argentina
Current Conditions -  °F | °C
As of 4:00 PM on Sunday 21 Dec 2014 (Local Time) from SACO Reporting Station
Few Clouds Few Clouds  
Wind Chill: 72°   Ceiling: Unl
Heat Index: 72°   Visibility: 6mi
Dew Point: 36°   Wind: 10mph
Humidity: 27%   Direction: 160°SSE
Pressure: 29.91"   Gusts: NA
Location:  32.18°S, 64.12°W
Report Text: SACO 211900Z 16009KT 9999 FEW030FEW035TCU 22/02 Q1013
Loading
Personal Weather Stations






























Interactive Weather Map New forecast layout! Learn more

10-Day Weather Forecast

Advertisements
Track Severe Weather on mobile